首页
METAR-TAF:

METAR-TAF

机场 :

纽黑文, 康乃狄克州, 美国

纬度: 41-15-50N, 经度: 072-53-14W, 海拔: 4米

当前天气观测

该预报发布于1小时和9分钟前的18:53 UTC
风速5节,风向西转西南
温度 7°C
湿度 93%
气压 993 hPa
能見度: 16.1公里
多云层高于1500英尺
阴天层高于2100英尺

METAR: KHVN 161853Z 24005KT 10SM BKN015 OVC021 07/06 A2933 RMK AO2 SLP930 T00720056

时间: 15:02 (20:02 UTC)


TAF: 丢失

超过4000个机场的气象观测和天气预报(METAR&TAF报告)。

可查询的气象台以黄色和红色小点在地图上表示。

将鼠标移到小点上方,可查看气象台名称。

然后点击查看天气观测和预报。

如需切换地图:点击带黑十字的绿色按钮放大地图;点击带横线的绿色按钮缩小地图;或者点击绿色箭头查看邻近地区的地图。


METAR-TAF: